sensor_id;sensor_type;location;lat;lon;timestamp;pressure;altitude;pressure_sealevel;temperature;humidity
14295;BME280;7231;59.370;18.016;2023-05-21T00:00:17;102635.34;;;10.66;59.35
14295;BME280;7231;59.370;18.016;2023-05-21T00:02:47;102680.31;;;10.89;59.38
14295;BME280;7231;59.370;18.016;2023-05-21T00:05:17;102681.13;;;10.88;59.75
14295;BME280;7231;59.370;18.016;2023-05-21T00:07:47;102683.69;;;10.86;59.79
14295;BME280;7231;59.370;18.016;2023-05-21T00:10:15;102687.69;;;10.80;59.94
14295;BME280;7231;59.370;18.016;2023-05-21T00:12:43;102690.78;;;10.72;60.05
14295;BME280;7231;59.370;18.016;2023-05-21T00:15:11;102663.13;;;10.48;60.26
14295;BME280;7231;59.370;18.016;2023-05-21T00:17:39;102687.28;;;10.57;60.61
14295;BME280;7231;59.370;18.016;2023-05-21T00:20:09;102692.00;;;10.48;61.09
14295;BME280;7231;59.370;18.016;2023-05-21T00:22:38;102695.34;;;10.46;61.37
14295;BME280;7231;59.370;18.016;2023-05-21T00:25:08;102687.78;;;10.35;61.48
14295;BME280;7231;59.370;18.016;2023-05-21T00:27:37;102688.34;;;10.30;61.77
14295;BME280;7231;59.370;18.016;2023-05-21T00:30:06;102691.13;;;10.33;61.99
14295;BME280;7231;59.370;18.016;2023-05-21T00:32:34;102692.59;;;10.28;62.35
14295;BME280;7231;59.370;18.016;2023-05-21T00:35:02;102682.44;;;10.19;62.75
14295;BME280;7231;59.370;18.016;2023-05-21T00:37:32;102695.84;;;10.24;62.94
14295;BME280;7231;59.370;18.016;2023-05-21T00:40:00;102662.28;;;10.03;63.04
14295;BME280;7231;59.370;18.016;2023-05-21T00:42:30;102695.66;;;10.21;63.16
14295;BME280;7231;59.370;18.016;2023-05-21T00:44:59;102688.38;;;10.17;63.50
14295;BME280;7231;59.370;18.016;2023-05-21T00:47:29;102555.91;;;9.33;63.65
14295;BME280;7231;59.370;18.016;2023-05-21T00:49:58;102683.69;;;10.11;64.27
14295;BME280;7231;59.370;18.016;2023-05-21T00:52:26;102674.28;;;10.00;64.31
14295;BME280;7231;59.370;18.016;2023-05-21T00:54:56;102686.03;;;10.06;64.83
14295;BME280;7231;59.370;18.016;2023-05-21T00:57:24;102679.06;;;10.07;65.31
14295;BME280;7231;59.370;18.016;2023-05-21T00:59:53;102685.13;;;10.06;65.37
14295;BME280;7231;59.370;18.016;2023-05-21T01:02:21;102676.44;;;9.92;65.47
14295;BME280;7231;59.370;18.016;2023-05-21T01:04:53;102683.50;;;9.93;65.88
14295;BME280;7231;59.370;18.016;2023-05-21T01:07:21;102690.63;;;9.96;65.85
14295;BME280;7231;59.370;18.016;2023-05-21T01:09:50;102691.44;;;9.95;66.11
14295;BME280;7231;59.370;18.016;2023-05-21T01:12:22;102667.31;;;9.86;66.26
14295;BME280;7231;59.370;18.016;2023-05-21T01:14:50;102686.94;;;9.92;66.33
14295;BME280;7231;59.370;18.016;2023-05-21T01:17:19;102686.94;;;9.92;66.47
14295;BME280;7231;59.370;18.016;2023-05-21T01:19:51;102688.56;;;9.90;66.33
14295;BME280;7231;59.370;18.016;2023-05-21T01:22:20;102627.59;;;9.50;66.75
14295;BME280;7231;59.370;18.016;2023-05-21T01:24:53;102679.31;;;9.82;67.25
14295;BME280;7231;59.370;18.016;2023-05-21T01:27:21;102682.13;;;9.85;67.00
14295;BME280;7231;59.370;18.016;2023-05-21T01:29:49;102655.72;;;9.67;67.32
14295;BME280;7231;59.370;18.016;2023-05-21T01:32:22;102694.50;;;9.88;67.61
14295;BME280;7231;59.370;18.016;2023-05-21T01:34:55;102683.84;;;9.85;67.79
14295;BME280;7231;59.370;18.016;2023-05-21T01:37:30;102685.47;;;9.83;68.04
14295;BME280;7231;59.370;18.016;2023-05-21T01:40:08;102696.75;;;9.82;68.21
14295;BME280;7231;59.370;18.016;2023-05-21T01:42:39;102669.91;;;9.71;68.20
14295;BME280;7231;59.370;18.016;2023-05-21T01:45:10;102649.22;;;9.61;68.19
14295;BME280;7231;59.370;18.016;2023-05-21T01:47:40;102703.72;;;9.81;68.69
14295;BME280;7231;59.370;18.016;2023-05-21T01:50:09;102696.47;;;9.77;68.71
14295;BME280;7231;59.370;18.016;2023-05-21T01:52:38;102666.47;;;9.57;69.04
14295;BME280;7231;59.370;18.016;2023-05-21T01:55:08;102700.81;;;9.76;69.43
14295;BME280;7231;59.370;18.016;2023-05-21T01:57:36;102698.09;;;9.75;69.03
14295;BME280;7231;59.370;18.016;2023-05-21T02:00:06;102700.44;;;9.70;69.43
14295;BME280;7231;59.370;18.016;2023-05-21T02:02:35;102660.56;;;9.47;70.04
14295;BME280;7231;59.370;18.016;2023-05-21T02:05:04;102699.34;;;9.67;70.32
14295;BME280;7231;59.370;18.016;2023-05-21T02:07:32;102695.66;;;9.63;70.36
14295;BME280;7231;59.370;18.016;2023-05-21T02:10:00;102700.97;;;9.65;70.48
14295;BME280;7231;59.370;18.016;2023-05-21T02:12:29;102700.16;;;9.66;70.83
14295;BME280;7231;59.370;18.016;2023-05-21T02:14:58;102691.22;;;9.62;71.03
14295;BME280;7231;59.370;18.016;2023-05-21T02:17:25;102700.34;;;9.69;71.02
14295;BME280;7231;59.370;18.016;2023-05-21T02:19:56;102686.06;;;9.64;71.22
14295;BME280;7231;59.370;18.016;2023-05-21T02:22:33;102686.59;;;9.58;71.06
14295;BME280;7231;59.370;18.016;2023-05-21T02:25:00;102704.31;;;9.62;71.59
14295;BME280;7231;59.370;18.016;2023-05-21T02:27:30;102698.16;;;9.62;71.85
14295;BME280;7231;59.370;18.016;2023-05-21T02:30:01;102707.84;;;9.63;71.68
14295;BME280;7231;59.370;18.016;2023-05-21T02:32:29;102695.72;;;9.65;71.78
14295;BME280;7231;59.370;18.016;2023-05-21T02:34:58;102687.88;;;9.65;71.89
14295;BME280;7231;59.370;18.016;2023-05-21T02:37:26;102686.16;;;9.65;72.20
14295;BME280;7231;59.370;18.016;2023-05-21T02:39:55;102693.94;;;9.64;72.25
14295;BME280;7231;59.370;18.016;2023-05-21T02:42:23;102695.66;;;9.63;72.60
14295;BME280;7231;59.370;18.016;2023-05-21T02:44:52;102670.50;;;9.52;72.86
14295;BME280;7231;59.370;18.016;2023-05-21T02:47:21;102669.59;;;9.52;72.73
14295;BME280;7231;59.370;18.016;2023-05-21T02:49:50;102694.03;;;9.65;72.88
14295;BME280;7231;59.370;18.016;2023-05-21T02:52:19;102694.94;;;9.66;73.04
14295;BME280;7231;59.370;18.016;2023-05-21T02:54:48;102682.53;;;9.63;73.14
14295;BME280;7231;59.370;18.016;2023-05-21T02:57:16;102689.97;;;9.70;73.24
14295;BME280;7231;59.370;18.016;2023-05-21T02:59:44;102687.63;;;9.75;73.43
14295;BME280;7231;59.370;18.016;2023-05-21T03:02:14;102686.91;;;9.77;73.64
14295;BME280;7231;59.370;18.016;2023-05-21T03:04:42;102683.75;;;9.83;73.67
14295;BME280;7231;59.370;18.016;2023-05-21T03:07:12;102655.09;;;9.71;73.92
14295;BME280;7231;59.370;18.016;2023-05-21T03:09:41;102677.34;;;9.93;74.04
14295;BME280;7231;59.370;18.016;2023-05-21T03:12:09;102682.06;;;9.98;74.30
14295;BME280;7231;59.370;18.016;2023-05-21T03:14:37;102662.81;;;9.98;74.33
14295;BME280;7231;59.370;18.016;2023-05-21T03:17:05;102677.00;;;10.16;74.42
14295;BME280;7231;59.370;18.016;2023-05-21T03:19:35;102663.47;;;10.23;74.57
14295;BME280;7231;59.370;18.016;2023-05-21T03:22:03;102678.28;;;10.37;74.55
14295;BME280;7231;59.370;18.016;2023-05-21T03:24:31;102678.59;;;10.44;74.26
14295;BME280;7231;59.370;18.016;2023-05-21T03:26:59;102674.97;;;10.56;74.06
14295;BME280;7231;59.370;18.016;2023-05-21T03:29:27;102681.75;;;10.67;73.73
14295;BME280;7231;59.370;18.016;2023-05-21T03:31:55;102675.28;;;10.77;73.85
14295;BME280;7231;59.370;18.016;2023-05-21T03:34:23;102675.91;;;10.88;73.76
14295;BME280;7231;59.370;18.016;2023-05-21T03:36:53;102676.56;;;11.00;73.51
14295;BME280;7231;59.370;18.016;2023-05-21T03:39:21;102673.72;;;11.12;73.37
14295;BME280;7231;59.370;18.016;2023-05-21T03:41:49;102650.84;;;11.09;72.97
14295;BME280;7231;59.370;18.016;2023-05-21T03:44:17;102673.09;;;11.32;72.81
14295;BME280;7231;59.370;18.016;2023-05-21T03:46:45;102663.00;;;11.39;72.42
14295;BME280;7231;59.370;18.016;2023-05-21T03:49:13;102667.03;;;11.49;72.31
14295;BME280;7231;59.370;18.016;2023-05-21T03:51:41;102662.09;;;11.55;72.09
14295;BME280;7231;59.370;18.016;2023-05-21T03:54:10;102663.31;;;11.62;72.21
14295;BME280;7231;59.370;18.016;2023-05-21T03:56:38;102662.81;;;11.69;71.91
14295;BME280;7231;59.370;18.016;2023-05-21T03:59:06;102622.34;;;11.49;71.87
14295;BME280;7231;59.370;18.016;2023-05-21T04:01:35;102576.00;;;11.33;71.68
14295;BME280;7231;59.370;18.016;2023-05-21T04:04:04;102666.28;;;11.84;71.61
14295;BME280;7231;59.370;18.016;2023-05-21T04:06:32;102607.00;;;11.57;71.60
14295;BME280;7231;59.370;18.016;2023-05-21T04:09:01;102658.94;;;11.95;71.45
14295;BME280;7231;59.370;18.016;2023-05-21T04:11:31;102620.38;;;11.78;71.83
14295;BME280;7231;59.370;18.016;2023-05-21T04:13:59;102653.19;;;12.02;71.54
14295;BME280;7231;59.370;18.016;2023-05-21T04:16:27;102655.22;;;12.08;71.56
14295;BME280;7231;59.370;18.016;2023-05-21T04:18:55;102653.81;;;12.14;71.38
14295;BME280;7231;59.370;18.016;2023-05-21T04:21:23;102635.25;;;12.11;71.00
14295;BME280;7231;59.370;18.016;2023-05-21T04:23:51;102640.38;;;12.26;71.51
14295;BME280;7231;59.370;18.016;2023-05-21T04:26:19;102646.09;;;12.35;71.17
14295;BME280;7231;59.370;18.016;2023-05-21T04:28:49;102650.81;;;12.42;71.47
14295;BME280;7231;59.370;18.016;2023-05-21T04:31:20;102654.66;;;12.49;71.20
14295;BME280;7231;59.370;18.016;2023-05-21T04:33:48;102656.84;;;12.57;71.42
14295;BME280;7231;59.370;18.016;2023-05-21T04:36:17;102647.66;;;12.67;70.94
14295;BME280;7231;59.370;18.016;2023-05-21T04:38:45;102657.72;;;12.76;70.78
14295;BME280;7231;59.370;18.016;2023-05-21T04:41:14;102648.53;;;12.85;70.48
14295;BME280;7231;59.370;18.016;2023-05-21T04:43:44;102649.88;;;12.95;70.93
14295;BME280;7231;59.370;18.016;2023-05-21T04:46:13;102642.22;;;13.01;70.61
14295;BME280;7231;59.370;18.016;2023-05-21T04:48:42;102645.00;;;13.04;70.29
14295;BME280;7231;59.370;18.016;2023-05-21T04:51:10;102640.84;;;13.09;69.98
14295;BME280;7231;59.370;18.016;2023-05-21T04:53:38;102648.97;;;13.14;70.11
14295;BME280;7231;59.370;18.016;2023-05-21T04:56:06;102650.94;;;13.18;69.71
14295;BME280;7231;59.370;18.016;2023-05-21T04:58:35;102517.75;;;12.47;69.81
14295;BME280;7231;59.370;18.016;2023-05-21T05:01:06;102641.59;;;13.24;69.54
14295;BME280;7231;59.370;18.016;2023-05-21T05:03:36;102640.06;;;13.29;69.46
14295;BME280;7231;59.370;18.016;2023-05-21T05:06:04;102630.16;;;13.24;69.20
14295;BME280;7231;59.370;18.016;2023-05-21T05:08:33;102640.06;;;13.29;69.45
14295;BME280;7231;59.370;18.016;2023-05-21T05:11:01;102636.75;;;13.33;69.37
14295;BME280;7231;59.370;18.016;2023-05-21T05:13:29;102631.47;;;13.33;69.21
14295;BME280;7231;59.370;18.016;2023-05-21T05:15:57;102634.38;;;13.40;68.95
14295;BME280;7231;59.370;18.016;2023-05-21T05:18:26;102635.44;;;13.43;68.28
14295;BME280;7231;59.370;18.016;2023-05-21T05:20:55;102631.88;;;13.43;68.11
14295;BME280;7231;59.370;18.016;2023-05-21T05:23:23;102629.19;;;13.41;68.00
14295;BME280;7231;59.370;18.016;2023-05-21T05:25:51;102627.19;;;13.36;67.83
14295;BME280;7231;59.370;18.016;2023-05-21T05:28:19;102633.00;;;13.28;67.70
14295;BME280;7231;59.370;18.016;2023-05-21T05:30:47;102632.78;;;13.24;67.65
14295;BME280;7231;59.370;18.016;2023-05-21T05:33:16;102612.09;;;13.14;68.01
14295;BME280;7231;59.370;18.016;2023-05-21T05:35:45;102630.78;;;13.18;67.91
14295;BME280;7231;59.370;18.016;2023-05-21T05:38:14;102611.06;;;13.10;67.92
14295;BME280;7231;59.370;18.016;2023-05-21T05:40:43;102553.41;;;12.78;68.00
14295;BME280;7231;59.370;18.016;2023-05-21T05:43:11;102623.53;;;13.14;68.31
14295;BME280;7231;59.370;18.016;2023-05-21T05:45:39;102625.34;;;13.15;68.40
14295;BME280;7231;59.370;18.016;2023-05-21T05:48:07;102614.44;;;13.08;68.47
14295;BME280;7231;59.370;18.016;2023-05-21T05:50:35;102627.25;;;13.18;68.40
14295;BME280;7231;59.370;18.016;2023-05-21T05:53:03;102628.16;;;13.18;68.33
14295;BME280;7231;59.370;18.016;2023-05-21T05:55:34;102630.09;;;13.22;68.25
14295;BME280;7231;59.370;18.016;2023-05-21T05:58:02;102618.72;;;13.23;68.38
14295;BME280;7231;59.370;18.016;2023-05-21T06:00:30;102620.94;;;13.33;67.93
14295;BME280;7231;59.370;18.016;2023-05-21T06:02:59;102612.63;;;13.44;67.24
14295;BME280;7231;59.370;18.016;2023-05-21T06:05:27;102606.66;;;13.48;67.16
14295;BME280;7231;59.370;18.016;2023-05-21T06:07:55;102610.41;;;13.74;66.75
14295;BME280;7231;59.370;18.016;2023-05-21T06:10:23;102600.47;;;13.87;66.67
14295;BME280;7231;59.370;18.016;2023-05-21T06:12:52;102608.44;;;14.10;66.27
14295;BME280;7231;59.370;18.016;2023-05-21T06:15:21;102594.09;;;14.24;66.11
14295;BME280;7231;59.370;18.016;2023-05-21T06:17:49;102611.66;;;14.44;65.24
14295;BME280;7231;59.370;18.016;2023-05-21T06:20:17;102606.75;;;14.53;64.73
14295;BME280;7231;59.370;18.016;2023-05-21T06:22:45;102611.44;;;14.60;64.50
14295;BME280;7231;59.370;18.016;2023-05-21T06:25:13;102611.75;;;14.68;63.85
14295;BME280;7231;59.370;18.016;2023-05-21T06:27:41;102602.22;;;14.72;63.46
14295;BME280;7231;59.370;18.016;2023-05-21T06:30:11;102600.75;;;14.80;63.24
14295;BME280;7231;59.370;18.016;2023-05-21T06:32:39;102605.56;;;14.90;62.80
14295;BME280;7231;59.370;18.016;2023-05-21T06:35:08;102594.16;;;14.91;62.13
14295;BME280;7231;59.370;18.016;2023-05-21T06:37:36;102592.72;;;14.99;61.86
14295;BME280;7231;59.370;18.016;2023-05-21T06:40:05;102592.03;;;15.05;61.41
14295;BME280;7231;59.370;18.016;2023-05-21T06:42:33;102594.84;;;15.09;61.01
14295;BME280;7231;59.370;18.016;2023-05-21T06:45:01;102598.69;;;15.17;60.98
14295;BME280;7231;59.370;18.016;2023-05-21T06:47:31;102593.84;;;15.30;60.64
14295;BME280;7231;59.370;18.016;2023-05-21T06:49:59;102567.19;;;15.23;60.52
14295;BME280;7231;59.370;18.016;2023-05-21T06:52:26;102602.63;;;15.52;60.31
14295;BME280;7231;59.370;18.016;2023-05-21T06:54:55;102595.06;;;15.63;60.01
14295;BME280;7231;59.370;18.016;2023-05-21T06:57:22;102583.13;;;15.74;59.36
14295;BME280;7231;59.370;18.016;2023-05-21T06:59:50;102594.38;;;15.94;58.93
14295;BME280;7231;59.370;18.016;2023-05-21T07:02:18;102598.50;;;16.11;58.74
14295;BME280;7231;59.370;18.016;2023-05-21T07:04:48;102584.00;;;16.27;58.17
14295;BME280;7231;59.370;18.016;2023-05-21T07:07:19;102598.75;;;16.46;57.11
14295;BME280;7231;59.370;18.016;2023-05-21T07:09:47;102591.31;;;16.63;56.08
14295;BME280;7231;59.370;18.016;2023-05-21T07:12:15;102585.81;;;16.83;55.26
14295;BME280;7231;59.370;18.016;2023-05-21T07:14:43;102584.75;;;17.07;54.66
14295;BME280;7231;59.370;18.016;2023-05-21T07:17:11;102581.56;;;17.50;54.12
14295;BME280;7231;59.370;18.016;2023-05-21T07:19:39;102461.59;;;17.27;53.38
14295;BME280;7231;59.370;18.016;2023-05-21T07:22:08;102579.50;;;18.42;52.74
14295;BME280;7231;59.370;18.016;2023-05-21T07:24:38;102587.59;;;18.86;52.16
14295;BME280;7231;59.370;18.016;2023-05-21T07:27:06;102554.50;;;19.12;51.47
14295;BME280;7231;59.370;18.016;2023-05-21T07:29:50;102456.34;;;19.26;51.04
14295;BME280;7231;59.370;18.016;2023-05-21T07:32:18;102552.69;;;20.62;49.89
14295;BME280;7231;59.370;18.016;2023-05-21T07:34:46;102581.25;;;21.42;47.67
14295;BME280;7231;59.370;18.016;2023-05-21T07:37:15;102571.81;;;21.76;44.79
14295;BME280;7231;59.370;18.016;2023-05-21T07:39:44;102563.09;;;21.95;43.79
14295;BME280;7231;59.370;18.016;2023-05-21T07:42:12;102563.19;;;22.04;42.67
14295;BME280;7231;59.370;18.016;2023-05-21T07:44:40;102555.00;;;21.86;42.62
14295;BME280;7231;59.370;18.016;2023-05-21T07:47:08;102503.66;;;21.22;42.39
14295;BME280;7231;59.370;18.016;2023-05-21T07:49:36;102563.13;;;21.15;42.57
14295;BME280;7231;59.370;18.016;2023-05-21T07:52:05;102563.63;;;20.83;42.64
14295;BME280;7231;59.370;18.016;2023-05-21T07:54:34;102562.34;;;20.52;42.74
14295;BME280;7231;59.370;18.016;2023-05-21T07:57:02;102560.97;;;20.24;43.16
14295;BME280;7231;59.370;18.016;2023-05-21T07:59:30;102565.13;;;20.05;43.22
14295;BME280;7231;59.370;18.016;2023-05-21T08:01:59;102557.75;;;19.89;43.24
14295;BME280;7231;59.370;18.016;2023-05-21T08:04:27;102557.53;;;19.77;43.72
14295;BME280;7231;59.370;18.016;2023-05-21T08:06:55;102550.34;;;19.71;43.86
14295;BME280;7231;59.370;18.016;2023-05-21T08:09:23;102555.75;;;19.77;43.95
14295;BME280;7231;59.370;18.016;2023-05-21T08:11:53;102564.00;;;19.91;44.08
14295;BME280;7231;59.370;18.016;2023-05-21T08:14:21;102557.94;;;20.00;44.09
14295;BME280;7231;59.370;18.016;2023-05-21T08:16:49;102558.09;;;20.10;44.07
14295;BME280;7231;59.370;18.016;2023-05-21T08:19:19;102555.50;;;20.15;44.23
14295;BME280;7231;59.370;18.016;2023-05-21T08:21:47;102555.59;;;20.21;43.51
14295;BME280;7231;59.370;18.016;2023-05-21T08:24:18;102554.03;;;20.34;43.11
14295;BME280;7231;59.370;18.016;2023-05-21T08:26:46;102559.56;;;20.46;43.15
14295;BME280;7231;59.370;18.016;2023-05-21T08:29:16;102556.00;;;21.15;43.70
14295;BME280;7231;59.370;18.016;2023-05-21T08:31:44;102553.50;;;22.15;42.85
14295;BME280;7231;59.370;18.016;2023-05-21T08:34:13;102544.19;;;22.99;41.85
14295;BME280;7231;59.370;18.016;2023-05-21T08:36:41;102538.13;;;23.66;41.48
14295;BME280;7231;59.370;18.016;2023-05-21T08:39:11;102549.72;;;24.37;40.06
14295;BME280;7231;59.370;18.016;2023-05-21T08:41:40;102549.50;;;25.08;38.33
14295;BME280;7231;59.370;18.016;2023-05-21T08:44:11;102540.22;;;25.66;37.67
14295;BME280;7231;59.370;18.016;2023-05-21T08:46:44;102543.38;;;26.13;35.92
14295;BME280;7231;59.370;18.016;2023-05-21T08:49:12;102540.78;;;26.04;35.51
14295;BME280;7231;59.370;18.016;2023-05-21T08:51:43;102548.19;;;25.81;34.92
14295;BME280;7231;59.370;18.016;2023-05-21T08:54:12;102550.78;;;25.92;34.75
14295;BME280;7231;59.370;18.016;2023-05-21T08:56:41;102460.72;;;25.39;33.91
14295;BME280;7231;59.370;18.016;2023-05-21T08:59:12;102547.56;;;25.38;33.80
14295;BME280;7231;59.370;18.016;2023-05-21T09:01:45;102548.69;;;24.88;34.08
14295;BME280;7231;59.370;18.016;2023-05-21T09:04:16;102536.28;;;24.50;34.21
14295;BME280;7231;59.370;18.016;2023-05-21T09:06:47;102540.66;;;24.83;35.24
14295;BME280;7231;59.370;18.016;2023-05-21T09:09:22;102526.19;;;25.16;34.12
14295;BME280;7231;59.370;18.016;2023-05-21T09:11:52;102548.28;;;25.61;34.08
14295;BME280;7231;59.370;18.016;2023-05-21T09:14:20;102541.69;;;26.03;33.69
14295;BME280;7231;59.370;18.016;2023-05-21T09:16:53;102540.34;;;26.50;32.76
14295;BME280;7231;59.370;18.016;2023-05-21T09:19:22;102519.31;;;26.84;32.65
14295;BME280;7231;59.370;18.016;2023-05-21T09:21:50;102471.53;;;27.01;31.89
14295;BME280;7231;59.370;18.016;2023-05-21T09:24:20;102528.00;;;27.69;31.45
14295;BME280;7231;59.370;18.016;2023-05-21T09:26:49;102530.16;;;27.99;30.75
14295;BME280;7231;59.370;18.016;2023-05-21T09:29:18;102528.00;;;28.20;30.26
14295;BME280;7231;59.370;18.016;2023-05-21T09:31:46;102526.38;;;28.59;30.53
14295;BME280;7231;59.370;18.016;2023-05-21T09:34:16;102520.09;;;29.00;30.12
14295;BME280;7231;59.370;18.016;2023-05-21T09:36:44;102525.50;;;29.00;29.99
14295;BME280;7231;59.370;18.016;2023-05-21T09:39:26;102523.91;;;28.90;29.64
14295;BME280;7231;59.370;18.016;2023-05-21T09:41:55;102510.91;;;29.08;28.65
14295;BME280;7231;59.370;18.016;2023-05-21T09:44:23;102504.25;;;29.23;28.96
14295;BME280;7231;59.370;18.016;2023-05-21T09:46:55;102517.66;;;29.28;27.89
14295;BME280;7231;59.370;18.016;2023-05-21T09:49:25;102515.47;;;29.05;28.00
14295;BME280;7231;59.370;18.016;2023-05-21T09:51:54;102521.19;;;28.91;28.29
14295;BME280;7231;59.370;18.016;2023-05-21T09:54:23;102517.09;;;28.70;28.64
14295;BME280;7231;59.370;18.016;2023-05-21T09:56:51;102507.34;;;29.06;28.93
14295;BME280;7231;59.370;18.016;2023-05-21T09:59:20;102505.66;;;29.39;28.16
14295;BME280;7231;59.370;18.016;2023-05-21T10:01:50;102518.44;;;29.71;27.71
14295;BME280;7231;59.370;18.016;2023-05-21T10:04:20;102509.25;;;30.13;27.16
14295;BME280;7231;59.370;18.016;2023-05-21T10:06:51;102504.75;;;30.13;26.69
14295;BME280;7231;59.370;18.016;2023-05-21T10:09:19;102501.31;;;29.71;27.17
14295;BME280;7231;59.370;18.016;2023-05-21T10:11:48;102506.47;;;29.06;27.83
14295;BME280;7231;59.370;18.016;2023-05-21T10:14:19;102458.03;;;28.10;28.41
14295;BME280;7231;59.370;18.016;2023-05-21T10:16:48;102490.19;;;28.24;29.09
14295;BME280;7231;59.370;18.016;2023-05-21T10:19:18;102503.50;;;28.33;29.07
14295;BME280;7231;59.370;18.016;2023-05-21T10:21:46;102503.19;;;28.49;28.78
14295;BME280;7231;59.370;18.016;2023-05-21T10:24:19;102499.91;;;28.74;28.37
14295;BME280;7231;59.370;18.016;2023-05-21T10:26:49;102492.31;;;28.95;28.04
14295;BME280;7231;59.370;18.016;2023-05-21T10:29:18;102497.44;;;29.07;28.29
14295;BME280;7231;59.370;18.016;2023-05-21T10:31:48;102378.34;;;28.39;28.32
14295;BME280;7231;59.370;18.016;2023-05-21T10:34:18;102491.59;;;29.25;28.22
14295;BME280;7231;59.370;18.016;2023-05-21T10:36:47;102487.97;;;29.26;27.79
14295;BME280;7231;59.370;18.016;2023-05-21T10:39:15;102491.81;;;29.16;28.67
14295;BME280;7231;59.370;18.016;2023-05-21T10:41:52;102481.72;;;29.24;28.66
14295;BME280;7231;59.370;18.016;2023-05-21T10:44:31;102478.22;;;29.19;28.58
14295;BME280;7231;59.370;18.016;2023-05-21T10:50:07;102424.69;;;29.35;28.23
14295;BME280;7231;59.370;18.016;2023-05-21T10:52:54;102471.22;;;29.11;28.86
14295;BME280;7231;59.370;18.016;2023-05-21T10:55:45;102489.94;;;28.78;29.34
14295;BME280;7231;59.370;18.016;2023-05-21T11:01:11;102462.63;;;28.93;29.35
14295;BME280;7231;59.370;18.016;2023-05-21T11:03:41;102470.41;;;29.07;28.82
14295;BME280;7231;59.370;18.016;2023-05-21T11:06:09;102481.88;;;28.76;29.20
14295;BME280;7231;59.370;18.016;2023-05-21T11:08:37;102470.06;;;27.93;29.71
14295;BME280;7231;59.370;18.016;2023-05-21T11:11:41;102483.53;;;27.39;30.23
14295;BME280;7231;59.370;18.016;2023-05-21T11:14:27;102453.25;;;26.57;31.08
14295;BME280;7231;59.370;18.016;2023-05-21T11:16:57;102477.69;;;26.39;31.40
14295;BME280;7231;59.370;18.016;2023-05-21T11:19:34;102478.88;;;26.10;31.60
14295;BME280;7231;59.370;18.016;2023-05-21T11:22:07;102478.84;;;26.13;31.96
14295;BME280;7231;59.370;18.016;2023-05-21T11:24:37;102461.63;;;26.33;32.03
14295;BME280;7231;59.370;18.016;2023-05-21T11:27:05;102464.66;;;26.77;31.86
14295;BME280;7231;59.370;18.016;2023-05-21T11:29:53;102464.34;;;27.02;31.44
14295;BME280;7231;59.370;18.016;2023-05-21T11:32:22;102460.19;;;27.39;31.80
14295;BME280;7231;59.370;18.016;2023-05-21T11:34:50;102453.28;;;27.77;31.26
14295;BME280;7231;59.370;18.016;2023-05-21T11:37:26;102453.13;;;27.86;30.55
14295;BME280;7231;59.370;18.016;2023-05-21T11:39:57;102448.38;;;27.46;30.80
14295;BME280;7231;59.370;18.016;2023-05-21T11:42:32;102466.63;;;27.29;30.54
14295;BME280;7231;59.370;18.016;2023-05-21T11:45:02;102462.34;;;27.16;30.23
14295;BME280;7231;59.370;18.016;2023-05-21T11:47:31;102412.81;;;26.63;30.55
14295;BME280;7231;59.370;18.016;2023-05-21T11:50:00;102460.28;;;26.69;31.17
14295;BME280;7231;59.370;18.016;2023-05-21T11:52:29;102464.22;;;26.42;30.94
14295;BME280;7231;59.370;18.016;2023-05-21T11:54:58;102464.44;;;26.20;31.30
14295;BME280;7231;59.370;18.016;2023-05-21T11:57:28;102418.94;;;26.01;31.73
14295;BME280;7231;59.370;18.016;2023-05-21T11:59:59;102454.06;;;26.64;31.92
14295;BME280;7231;59.370;18.016;2023-05-21T12:02:29;102381.22;;;26.77;31.90
14295;BME280;7231;59.370;18.016;2023-05-21T12:04:58;102435.53;;;27.08;31.17
14295;BME280;7231;59.370;18.016;2023-05-21T12:07:29;102443.78;;;26.93;31.36
14295;BME280;7231;59.370;18.016;2023-05-21T12:09:57;102450.38;;;26.72;31.44
14295;BME280;7231;59.370;18.016;2023-05-21T12:12:26;102448.00;;;26.48;31.80
14295;BME280;7231;59.370;18.016;2023-05-21T12:15:11;102454.16;;;26.58;32.12
14295;BME280;7231;59.370;18.016;2023-05-21T12:17:42;102440.56;;;26.68;31.37
14295;BME280;7231;59.370;18.016;2023-05-21T12:20:13;102438.81;;;26.64;31.48
14295;BME280;7231;59.370;18.016;2023-05-21T12:22:43;102438.19;;;26.42;31.77
14295;BME280;7231;59.370;18.016;2023-05-21T12:25:11;102431.25;;;26.20;32.20
14295;BME280;7231;59.370;18.016;2023-05-21T12:27:39;102410.03;;;25.99;32.13
14295;BME280;7231;59.370;18.016;2023-05-21T12:30:10;102414.50;;;25.98;32.59
14295;BME280;7231;59.370;18.016;2023-05-21T12:32:40;102437.75;;;26.02;32.88
14295;BME280;7231;59.370;18.016;2023-05-21T12:35:20;102427.84;;;26.04;32.39
14295;BME280;7231;59.370;18.016;2023-05-21T12:37:50;102422.31;;;26.19;32.76
14295;BME280;7231;59.370;18.016;2023-05-21T12:40:18;102426.59;;;26.37;32.66
14295;BME280;7231;59.370;18.016;2023-05-21T12:42:48;102416.22;;;26.77;32.72
14295;BME280;7231;59.370;18.016;2023-05-21T12:45:17;102390.59;;;27.12;32.37
14295;BME280;7231;59.370;18.016;2023-05-21T12:47:48;102382.94;;;27.89;31.38
14295;BME280;7231;59.370;18.016;2023-05-21T12:50:23;102405.69;;;28.22;30.60
14295;BME280;7231;59.370;18.016;2023-05-21T12:52:55;102410.03;;;28.69;30.46
14295;BME280;7231;59.370;18.016;2023-05-21T12:55:24;102398.53;;;29.37;29.82
14295;BME280;7231;59.370;18.016;2023-05-21T12:58:02;102395.94;;;29.32;28.99
14295;BME280;7231;59.370;18.016;2023-05-21T13:00:34;102399.91;;;28.79;29.75
14295;BME280;7231;59.370;18.016;2023-05-21T13:03:03;102389.66;;;28.56;29.31
14295;BME280;7231;59.370;18.016;2023-05-21T13:05:33;102374.47;;;28.91;29.27
14295;BME280;7231;59.370;18.016;2023-05-21T13:08:04;102401.25;;;29.71;28.21
14295;BME280;7231;59.370;18.016;2023-05-21T13:10:32;102403.03;;;29.36;28.17